sensor_id;sensor_type;location;lat;lon;timestamp;temperature;humidity
25436;DHT22;13363;52.772;-3.890;2023-08-08T00:01:23;13.10;99.90
25436;DHT22;13363;52.772;-3.890;2023-08-08T00:03:49;13.10;99.90
25436;DHT22;13363;52.772;-3.890;2023-08-08T00:06:15;13.10;99.90
25436;DHT22;13363;52.772;-3.890;2023-08-08T00:08:41;13.20;99.90
25436;DHT22;13363;52.772;-3.890;2023-08-08T00:11:07;13.20;99.90
25436;DHT22;13363;52.772;-3.890;2023-08-08T00:13:32;13.20;99.90
25436;DHT22;13363;52.772;-3.890;2023-08-08T00:15:58;13.30;99.90
25436;DHT22;13363;52.772;-3.890;2023-08-08T00:18:24;13.30;99.90
25436;DHT22;13363;52.772;-3.890;2023-08-08T00:20:50;13.30;99.90
25436;DHT22;13363;52.772;-3.890;2023-08-08T00:23:16;13.20;99.90
25436;DHT22;13363;52.772;-3.890;2023-08-08T00:25:42;13.20;99.90
25436;DHT22;13363;52.772;-3.890;2023-08-08T00:28:07;13.10;99.90
25436;DHT22;13363;52.772;-3.890;2023-08-08T00:30:33;13.10;99.90
25436;DHT22;13363;52.772;-3.890;2023-08-08T00:32:59;13.10;99.90
25436;DHT22;13363;52.772;-3.890;2023-08-08T00:35:25;13.10;99.90
25436;DHT22;13363;52.772;-3.890;2023-08-08T00:37:51;13.20;99.90
25436;DHT22;13363;52.772;-3.890;2023-08-08T00:40:16;13.20;99.90
25436;DHT22;13363;52.772;-3.890;2023-08-08T00:42:42;13.20;99.90
25436;DHT22;13363;52.772;-3.890;2023-08-08T00:45:08;13.30;99.90
25436;DHT22;13363;52.772;-3.890;2023-08-08T00:47:34;13.30;99.90
25436;DHT22;13363;52.772;-3.890;2023-08-08T00:50:02;13.40;99.90
25436;DHT22;13363;52.772;-3.890;2023-08-08T00:52:28;13.50;99.90
25436;DHT22;13363;52.772;-3.890;2023-08-08T00:54:54;13.50;99.90
25436;DHT22;13363;52.772;-3.890;2023-08-08T00:57:20;13.50;99.90
25436;DHT22;13363;52.772;-3.890;2023-08-08T00:59:46;13.50;99.90
25436;DHT22;13363;52.772;-3.890;2023-08-08T01:02:12;13.40;99.90
25436;DHT22;13363;52.772;-3.890;2023-08-08T01:04:39;13.40;99.90
25436;DHT22;13363;52.772;-3.890;2023-08-08T01:10:09;13.40;99.90
25436;DHT22;13363;52.772;-3.890;2023-08-08T01:12:42;13.50;99.90
25436;DHT22;13363;52.772;-3.890;2023-08-08T01:15:10;13.50;99.90
25436;DHT22;13363;52.772;-3.890;2023-08-08T01:17:38;13.40;99.90
25436;DHT22;13363;52.772;-3.890;2023-08-08T01:20:05;13.50;99.90
25436;DHT22;13363;52.772;-3.890;2023-08-08T01:25:32;13.50;99.90
25436;DHT22;13363;52.772;-3.890;2023-08-08T01:27:58;13.50;99.90
25436;DHT22;13363;52.772;-3.890;2023-08-08T01:30:23;13.60;99.90
25436;DHT22;13363;52.772;-3.890;2023-08-08T01:32:49;13.60;99.90
25436;DHT22;13363;52.772;-3.890;2023-08-08T01:35:15;13.60;99.90
25436;DHT22;13363;52.772;-3.890;2023-08-08T01:37:48;13.50;99.90
25436;DHT22;13363;52.772;-3.890;2023-08-08T01:40:18;13.40;99.90
25436;DHT22;13363;52.772;-3.890;2023-08-08T01:42:47;13.30;99.90
25436;DHT22;13363;52.772;-3.890;2023-08-08T01:45:15;13.20;99.90
25436;DHT22;13363;52.772;-3.890;2023-08-08T01:47:41;13.10;99.90
25436;DHT22;13363;52.772;-3.890;2023-08-08T01:50:07;13.10;99.90
25436;DHT22;13363;52.772;-3.890;2023-08-08T01:52:34;13.10;99.90
25436;DHT22;13363;52.772;-3.890;2023-08-08T01:55:01;13.00;99.90
25436;DHT22;13363;52.772;-3.890;2023-08-08T01:59:53;13.00;99.90
25436;DHT22;13363;52.772;-3.890;2023-08-08T02:02:18;13.00;99.90
25436;DHT22;13363;52.772;-3.890;2023-08-08T02:04:44;13.00;99.90
25436;DHT22;13363;52.772;-3.890;2023-08-08T02:07:10;13.00;99.90
25436;DHT22;13363;52.772;-3.890;2023-08-08T02:09:36;13.20;99.90
25436;DHT22;13363;52.772;-3.890;2023-08-08T02:12:02;13.20;99.90
25436;DHT22;13363;52.772;-3.890;2023-08-08T02:14:27;13.30;99.90
25436;DHT22;13363;52.772;-3.890;2023-08-08T02:16:53;13.30;99.90
25436;DHT22;13363;52.772;-3.890;2023-08-08T02:19:19;13.30;99.90
25436;DHT22;13363;52.772;-3.890;2023-08-08T02:24:11;13.40;99.90
25436;DHT22;13363;52.772;-3.890;2023-08-08T02:26:37;13.30;99.90
25436;DHT22;13363;52.772;-3.890;2023-08-08T02:29:03;13.30;99.90
25436;DHT22;13363;52.772;-3.890;2023-08-08T02:31:28;13.30;99.90
25436;DHT22;13363;52.772;-3.890;2023-08-08T02:33:54;13.30;99.90
25436;DHT22;13363;52.772;-3.890;2023-08-08T02:38:46;13.40;99.90
25436;DHT22;13363;52.772;-3.890;2023-08-08T02:41:12;13.40;99.90
25436;DHT22;13363;52.772;-3.890;2023-08-08T02:43:38;13.40;99.90
25436;DHT22;13363;52.772;-3.890;2023-08-08T02:46:04;13.30;99.90
25436;DHT22;13363;52.772;-3.890;2023-08-08T02:48:30;13.30;99.90
25436;DHT22;13363;52.772;-3.890;2023-08-08T02:50:56;13.20;99.90
25436;DHT22;13363;52.772;-3.890;2023-08-08T02:53:22;13.30;99.90
25436;DHT22;13363;52.772;-3.890;2023-08-08T02:55:48;13.30;99.90
25436;DHT22;13363;52.772;-3.890;2023-08-08T02:58:14;13.40;99.90
25436;DHT22;13363;52.772;-3.890;2023-08-08T03:05:32;13.30;99.90
25436;DHT22;13363;52.772;-3.890;2023-08-08T03:07:58;13.30;99.90
25436;DHT22;13363;52.772;-3.890;2023-08-08T03:10:23;13.30;99.90
25436;DHT22;13363;52.772;-3.890;2023-08-08T03:12:49;13.30;99.90
25436;DHT22;13363;52.772;-3.890;2023-08-08T03:15:15;13.20;99.90
25436;DHT22;13363;52.772;-3.890;2023-08-08T03:17:41;13.30;99.90
25436;DHT22;13363;52.772;-3.890;2023-08-08T03:20:07;13.30;99.90
25436;DHT22;13363;52.772;-3.890;2023-08-08T03:22:34;13.30;99.90
25436;DHT22;13363;52.772;-3.890;2023-08-08T03:25:00;13.20;99.90
25436;DHT22;13363;52.772;-3.890;2023-08-08T03:27:25;13.20;99.90
25436;DHT22;13363;52.772;-3.890;2023-08-08T03:29:51;13.20;99.90
25436;DHT22;13363;52.772;-3.890;2023-08-08T03:32:17;13.20;99.90
25436;DHT22;13363;52.772;-3.890;2023-08-08T03:34:43;13.20;99.90
25436;DHT22;13363;52.772;-3.890;2023-08-08T03:37:09;13.20;99.90
25436;DHT22;13363;52.772;-3.890;2023-08-08T03:39:35;13.10;99.90
25436;DHT22;13363;52.772;-3.890;2023-08-08T03:42:01;13.10;99.90
25436;DHT22;13363;52.772;-3.890;2023-08-08T03:44:26;13.20;99.90
25436;DHT22;13363;52.772;-3.890;2023-08-08T03:46:52;13.20;99.90
25436;DHT22;13363;52.772;-3.890;2023-08-08T03:49:18;13.20;99.90
25436;DHT22;13363;52.772;-3.890;2023-08-08T03:51:44;13.30;99.90
25436;DHT22;13363;52.772;-3.890;2023-08-08T03:54:10;13.20;99.90
25436;DHT22;13363;52.772;-3.890;2023-08-08T03:56:36;13.20;99.90
25436;DHT22;13363;52.772;-3.890;2023-08-08T03:59:01;13.20;99.90
25436;DHT22;13363;52.772;-3.890;2023-08-08T04:01:27;13.20;99.90
25436;DHT22;13363;52.772;-3.890;2023-08-08T04:03:53;13.30;99.90
25436;DHT22;13363;52.772;-3.890;2023-08-08T04:06:19;13.30;99.90
25436;DHT22;13363;52.772;-3.890;2023-08-08T04:08:44;13.20;99.90
25436;DHT22;13363;52.772;-3.890;2023-08-08T04:11:11;13.20;99.90
25436;DHT22;13363;52.772;-3.890;2023-08-08T04:13:37;13.20;99.90
25436;DHT22;13363;52.772;-3.890;2023-08-08T04:16:03;13.20;99.90
25436;DHT22;13363;52.772;-3.890;2023-08-08T04:18:28;13.10;99.90
25436;DHT22;13363;52.772;-3.890;2023-08-08T04:20:54;13.20;99.90
25436;DHT22;13363;52.772;-3.890;2023-08-08T04:23:20;13.20;99.90
25436;DHT22;13363;52.772;-3.890;2023-08-08T04:25:48;13.20;99.90
25436;DHT22;13363;52.772;-3.890;2023-08-08T04:28:13;13.20;99.90
25436;DHT22;13363;52.772;-3.890;2023-08-08T04:30:39;13.20;99.90
25436;DHT22;13363;52.772;-3.890;2023-08-08T04:33:05;13.20;99.90
25436;DHT22;13363;52.772;-3.890;2023-08-08T04:35:31;13.10;99.90
25436;DHT22;13363;52.772;-3.890;2023-08-08T04:37:57;13.10;99.90
25436;DHT22;13363;52.772;-3.890;2023-08-08T04:40:22;13.10;99.90
25436;DHT22;13363;52.772;-3.890;2023-08-08T04:42:48;13.20;99.90
25436;DHT22;13363;52.772;-3.890;2023-08-08T04:45:14;13.20;99.90
25436;DHT22;13363;52.772;-3.890;2023-08-08T04:47:40;13.20;99.90
25436;DHT22;13363;52.772;-3.890;2023-08-08T04:50:06;13.20;99.90
25436;DHT22;13363;52.772;-3.890;2023-08-08T04:52:32;13.20;99.90
25436;DHT22;13363;52.772;-3.890;2023-08-08T04:54:58;13.20;99.90
25436;DHT22;13363;52.772;-3.890;2023-08-08T04:57:23;13.30;99.90
25436;DHT22;13363;52.772;-3.890;2023-08-08T04:59:49;13.30;99.90
25436;DHT22;13363;52.772;-3.890;2023-08-08T05:02:15;13.30;99.90
25436;DHT22;13363;52.772;-3.890;2023-08-08T05:04:42;13.30;99.90
25436;DHT22;13363;52.772;-3.890;2023-08-08T05:07:07;13.20;99.90
25436;DHT22;13363;52.772;-3.890;2023-08-08T05:09:33;13.20;99.90
25436;DHT22;13363;52.772;-3.890;2023-08-08T05:11:59;13.20;99.90
25436;DHT22;13363;52.772;-3.890;2023-08-08T05:14:25;13.20;99.90
25436;DHT22;13363;52.772;-3.890;2023-08-08T05:16:51;13.40;99.90
25436;DHT22;13363;52.772;-3.890;2023-08-08T05:19:16;13.40;99.90
25436;DHT22;13363;52.772;-3.890;2023-08-08T05:21:42;13.30;99.90
25436;DHT22;13363;52.772;-3.890;2023-08-08T05:24:08;13.40;99.90
25436;DHT22;13363;52.772;-3.890;2023-08-08T05:26:34;13.40;99.90
25436;DHT22;13363;52.772;-3.890;2023-08-08T05:29:00;13.40;99.90
25436;DHT22;13363;52.772;-3.890;2023-08-08T05:31:25;13.30;99.90
25436;DHT22;13363;52.772;-3.890;2023-08-08T05:33:51;13.40;99.90
25436;DHT22;13363;52.772;-3.890;2023-08-08T05:36:17;13.40;99.90
25436;DHT22;13363;52.772;-3.890;2023-08-08T05:38:43;13.30;99.90
25436;DHT22;13363;52.772;-3.890;2023-08-08T05:41:09;13.30;99.90
25436;DHT22;13363;52.772;-3.890;2023-08-08T05:43:35;13.30;99.90
25436;DHT22;13363;52.772;-3.890;2023-08-08T05:46:01;13.40;99.90
25436;DHT22;13363;52.772;-3.890;2023-08-08T05:48:26;13.30;99.90
25436;DHT22;13363;52.772;-3.890;2023-08-08T05:50:52;13.50;99.90
25436;DHT22;13363;52.772;-3.890;2023-08-08T05:53:18;13.50;99.90
25436;DHT22;13363;52.772;-3.890;2023-08-08T05:55:44;13.40;99.90
25436;DHT22;13363;52.772;-3.890;2023-08-08T05:58:10;13.50;99.90
25436;DHT22;13363;52.772;-3.890;2023-08-08T06:00:36;13.40;99.90
25436;DHT22;13363;52.772;-3.890;2023-08-08T06:03:01;13.40;99.90
25436;DHT22;13363;52.772;-3.890;2023-08-08T06:05:27;13.40;99.90
25436;DHT22;13363;52.772;-3.890;2023-08-08T06:07:54;13.50;99.90
25436;DHT22;13363;52.772;-3.890;2023-08-08T06:10:23;13.60;99.90
25436;DHT22;13363;52.772;-3.890;2023-08-08T06:12:50;13.60;99.90
25436;DHT22;13363;52.772;-3.890;2023-08-08T06:15:16;13.60;99.90
25436;DHT22;13363;52.772;-3.890;2023-08-08T06:17:42;13.70;99.90
25436;DHT22;13363;52.772;-3.890;2023-08-08T06:20:08;13.70;99.90
25436;DHT22;13363;52.772;-3.890;2023-08-08T06:25:01;13.60;99.90
25436;DHT22;13363;52.772;-3.890;2023-08-08T06:27:27;13.70;99.90
25436;DHT22;13363;52.772;-3.890;2023-08-08T06:29:53;13.80;99.90
25436;DHT22;13363;52.772;-3.890;2023-08-08T06:34:45;13.90;99.90
25436;DHT22;13363;52.772;-3.890;2023-08-08T06:37:10;13.90;99.90
25436;DHT22;13363;52.772;-3.890;2023-08-08T06:39:36;14.00;99.90
25436;DHT22;13363;52.772;-3.890;2023-08-08T06:42:04;14.00;99.90
25436;DHT22;13363;52.772;-3.890;2023-08-08T06:44:32;14.00;99.90
25436;DHT22;13363;52.772;-3.890;2023-08-08T06:46:58;14.10;99.90
25436;DHT22;13363;52.772;-3.890;2023-08-08T06:49:24;14.10;99.90
25436;DHT22;13363;52.772;-3.890;2023-08-08T06:51:49;14.20;99.90
25436;DHT22;13363;52.772;-3.890;2023-08-08T06:54:15;14.30;99.90
25436;DHT22;13363;52.772;-3.890;2023-08-08T06:56:41;14.30;99.90
25436;DHT22;13363;52.772;-3.890;2023-08-08T06:59:07;14.40;99.90
25436;DHT22;13363;52.772;-3.890;2023-08-08T07:01:33;14.40;99.90
25436;DHT22;13363;52.772;-3.890;2023-08-08T07:03:59;14.60;99.90
25436;DHT22;13363;52.772;-3.890;2023-08-08T07:06:25;14.50;99.90
25436;DHT22;13363;52.772;-3.890;2023-08-08T07:08:51;14.50;99.90
25436;DHT22;13363;52.772;-3.890;2023-08-08T07:11:17;14.60;99.90
25436;DHT22;13363;52.772;-3.890;2023-08-08T07:13:42;14.70;99.90
25436;DHT22;13363;52.772;-3.890;2023-08-08T07:16:08;14.60;99.90
25436;DHT22;13363;52.772;-3.890;2023-08-08T07:18:34;14.70;99.90
25436;DHT22;13363;52.772;-3.890;2023-08-08T07:21:00;14.70;99.90
25436;DHT22;13363;52.772;-3.890;2023-08-08T07:23:26;14.70;99.90
25436;DHT22;13363;52.772;-3.890;2023-08-08T07:25:51;14.70;99.90
25436;DHT22;13363;52.772;-3.890;2023-08-08T07:28:17;14.80;99.90
25436;DHT22;13363;52.772;-3.890;2023-08-08T07:30:43;14.80;99.90
25436;DHT22;13363;52.772;-3.890;2023-08-08T07:33:09;14.90;99.90
25436;DHT22;13363;52.772;-3.890;2023-08-08T07:35:35;15.00;99.90
25436;DHT22;13363;52.772;-3.890;2023-08-08T07:40:28;15.00;99.90
25436;DHT22;13363;52.772;-3.890;2023-08-08T07:42:53;15.00;99.90
25436;DHT22;13363;52.772;-3.890;2023-08-08T07:45:19;15.10;99.90
25436;DHT22;13363;52.772;-3.890;2023-08-08T07:47:45;15.00;99.90
25436;DHT22;13363;52.772;-3.890;2023-08-08T07:50:12;15.00;99.90
25436;DHT22;13363;52.772;-3.890;2023-08-08T07:52:38;15.00;99.90
25436;DHT22;13363;52.772;-3.890;2023-08-08T07:55:05;15.10;99.90
25436;DHT22;13363;52.772;-3.890;2023-08-08T07:57:32;15.20;99.90
25436;DHT22;13363;52.772;-3.890;2023-08-08T08:00:05;15.30;99.90
25436;DHT22;13363;52.772;-3.890;2023-08-08T08:02:36;15.40;99.90
25436;DHT22;13363;52.772;-3.890;2023-08-08T08:05:03;15.50;99.90
25436;DHT22;13363;52.772;-3.890;2023-08-08T08:07:32;15.60;99.90
25436;DHT22;13363;52.772;-3.890;2023-08-08T08:09:58;15.70;99.90
25436;DHT22;13363;52.772;-3.890;2023-08-08T08:12:24;15.70;99.90
25436;DHT22;13363;52.772;-3.890;2023-08-08T08:14:49;15.70;99.90
25436;DHT22;13363;52.772;-3.890;2023-08-08T08:17:15;15.60;99.90
25436;DHT22;13363;52.772;-3.890;2023-08-08T08:19:41;15.50;99.90
25436;DHT22;13363;52.772;-3.890;2023-08-08T08:22:07;15.60;99.90
25436;DHT22;13363;52.772;-3.890;2023-08-08T08:24:32;15.60;99.90
25436;DHT22;13363;52.772;-3.890;2023-08-08T08:29:24;15.90;99.90
25436;DHT22;13363;52.772;-3.890;2023-08-08T08:31:50;16.00;99.90
25436;DHT22;13363;52.772;-3.890;2023-08-08T08:34:16;16.00;99.90
25436;DHT22;13363;52.772;-3.890;2023-08-08T08:36:42;16.10;99.90
25436;DHT22;13363;52.772;-3.890;2023-08-08T08:39:08;16.00;99.90
25436;DHT22;13363;52.772;-3.890;2023-08-08T08:44:04;16.20;99.90
25436;DHT22;13363;52.772;-3.890;2023-08-08T08:46:30;16.40;99.90
25436;DHT22;13363;52.772;-3.890;2023-08-08T08:48:58;16.60;99.90
25436;DHT22;13363;52.772;-3.890;2023-08-08T08:51:25;16.60;99.90
25436;DHT22;13363;52.772;-3.890;2023-08-08T08:53:51;16.60;99.90
25436;DHT22;13363;52.772;-3.890;2023-08-08T08:56:18;16.60;99.90
25436;DHT22;13363;52.772;-3.890;2023-08-08T08:58:44;16.70;99.90
25436;DHT22;13363;52.772;-3.890;2023-08-08T09:01:10;16.90;99.90
25436;DHT22;13363;52.772;-3.890;2023-08-08T09:03:36;16.90;99.90
25436;DHT22;13363;52.772;-3.890;2023-08-08T09:06:03;16.90;99.90
25436;DHT22;13363;52.772;-3.890;2023-08-08T09:08:30;16.90;99.90
25436;DHT22;13363;52.772;-3.890;2023-08-08T09:10:56;16.90;99.90
25436;DHT22;13363;52.772;-3.890;2023-08-08T09:13:23;16.90;99.90
25436;DHT22;13363;52.772;-3.890;2023-08-08T09:15:51;16.70;99.90
25436;DHT22;13363;52.772;-3.890;2023-08-08T09:18:17;16.60;99.90
25436;DHT22;13363;52.772;-3.890;2023-08-08T09:20:49;16.60;99.90
25436;DHT22;13363;52.772;-3.890;2023-08-08T09:23:15;16.70;99.90
25436;DHT22;13363;52.772;-3.890;2023-08-08T09:25:45;16.80;99.90
25436;DHT22;13363;52.772;-3.890;2023-08-08T09:28:11;16.90;99.90
25436;DHT22;13363;52.772;-3.890;2023-08-08T09:30:37;16.90;99.90
25436;DHT22;13363;52.772;-3.890;2023-08-08T09:33:04;16.90;99.90
25436;DHT22;13363;52.772;-3.890;2023-08-08T09:35:30;16.80;99.90
25436;DHT22;13363;52.772;-3.890;2023-08-08T09:37:56;16.70;99.90
25436;DHT22;13363;52.772;-3.890;2023-08-08T09:40:23;16.80;99.90
25436;DHT22;13363;52.772;-3.890;2023-08-08T09:42:51;16.90;99.90
25436;DHT22;13363;52.772;-3.890;2023-08-08T09:45:18;17.90;99.90
25436;DHT22;13363;52.772;-3.890;2023-08-08T09:47:45;16.80;99.90
25436;DHT22;13363;52.772;-3.890;2023-08-08T09:50:11;16.70;99.90
25436;DHT22;13363;52.772;-3.890;2023-08-08T09:52:38;16.80;99.90
25436;DHT22;13363;52.772;-3.890;2023-08-08T09:55:05;16.90;99.90
25436;DHT22;13363;52.772;-3.890;2023-08-08T09:57:32;16.90;99.90
25436;DHT22;13363;52.772;-3.890;2023-08-08T09:59:58;16.90;99.90
25436;DHT22;13363;52.772;-3.890;2023-08-08T10:02:24;16.90;99.90
25436;DHT22;13363;52.772;-3.890;2023-08-08T10:04:51;17.10;99.90
25436;DHT22;13363;52.772;-3.890;2023-08-08T10:07:18;17.10;99.90
25436;DHT22;13363;52.772;-3.890;2023-08-08T10:09:43;17.20;99.90
25436;DHT22;13363;52.772;-3.890;2023-08-08T10:12:11;17.20;99.90
25436;DHT22;13363;52.772;-3.890;2023-08-08T10:14:41;17.00;99.90
25436;DHT22;13363;52.772;-3.890;2023-08-08T10:17:07;17.00;99.90
25436;DHT22;13363;52.772;-3.890;2023-08-08T10:19:33;17.10;99.90
25436;DHT22;13363;52.772;-3.890;2023-08-08T10:22:04;17.10;99.90
25436;DHT22;13363;52.772;-3.890;2023-08-08T10:24:35;17.10;99.90
25436;DHT22;13363;52.772;-3.890;2023-08-08T10:27:02;17.40;99.90
25436;DHT22;13363;52.772;-3.890;2023-08-08T10:29:32;17.30;99.90
25436;DHT22;13363;52.772;-3.890;2023-08-08T10:31:59;17.20;99.90
25436;DHT22;13363;52.772;-3.890;2023-08-08T10:34:46;17.20;99.90
25436;DHT22;13363;52.772;-3.890;2023-08-08T10:37:16;17.20;99.90
25436;DHT22;13363;52.772;-3.890;2023-08-08T10:40:00;17.20;99.90
25436;DHT22;13363;52.772;-3.890;2023-08-08T10:42:27;17.30;99.90
25436;DHT22;13363;52.772;-3.890;2023-08-08T10:44:57;17.40;99.90
25436;DHT22;13363;52.772;-3.890;2023-08-08T10:47:25;17.40;99.90
25436;DHT22;13363;52.772;-3.890;2023-08-08T10:50:07;17.70;99.90
25436;DHT22;13363;52.772;-3.890;2023-08-08T10:52:55;17.70;99.90
25436;DHT22;13363;52.772;-3.890;2023-08-08T10:55:41;17.90;99.90
25436;DHT22;13363;52.772;-3.890;2023-08-08T10:58:10;18.00;99.90
25436;DHT22;13363;52.772;-3.890;2023-08-08T11:00:38;18.10;99.90
25436;DHT22;13363;52.772;-3.890;2023-08-08T11:03:05;18.10;99.90
25436;DHT22;13363;52.772;-3.890;2023-08-08T11:05:36;18.00;99.90
25436;DHT22;13363;52.772;-3.890;2023-08-08T11:08:06;18.00;99.90
25436;DHT22;13363;52.772;-3.890;2023-08-08T11:10:40;18.00;99.90
25436;DHT22;13363;52.772;-3.890;2023-08-08T11:13:08;18.00;99.90
25436;DHT22;13363;52.772;-3.890;2023-08-08T11:15:35;18.00;99.90
25436;DHT22;13363;52.772;-3.890;2023-08-08T11:18:02;18.20;99.90
25436;DHT22;13363;52.772;-3.890;2023-08-08T11:20:32;18.20;99.90
25436;DHT22;13363;52.772;-3.890;2023-08-08T11:25:27;18.50;99.90
25436;DHT22;13363;52.772;-3.890;2023-08-08T11:27:54;18.50;99.90
25436;DHT22;13363;52.772;-3.890;2023-08-08T11:30:21;18.40;99.90
25436;DHT22;13363;52.772;-3.890;2023-08-08T11:32:49;18.40;99.90
25436;DHT22;13363;52.772;-3.890;2023-08-08T11:35:22;18.40;99.90
25436;DHT22;13363;52.772;-3.890;2023-08-08T11:37:49;18.40;99.90
25436;DHT22;13363;52.772;-3.890;2023-08-08T11:40:16;18.30;99.90
25436;DHT22;13363;52.772;-3.890;2023-08-08T11:42:42;18.00;99.90
25436;DHT22;13363;52.772;-3.890;2023-08-08T11:45:10;18.10;99.90
25436;DHT22;13363;52.772;-3.890;2023-08-08T11:47:38;18.30;99.90
25436;DHT22;13363;52.772;-3.890;2023-08-08T11:50:07;18.40;99.90
25436;DHT22;13363;52.772;-3.890;2023-08-08T11:52:35;18.50;99.90
25436;DHT22;13363;52.772;-3.890;2023-08-08T11:55:01;18.70;99.90
25436;DHT22;13363;52.772;-3.890;2023-08-08T11:57:27;18.80;99.90
25436;DHT22;13363;52.772;-3.890;2023-08-08T11:59:54;18.90;99.90
25436;DHT22;13363;52.772;-3.890;2023-08-08T12:02:20;18.90;99.90
25436;DHT22;13363;52.772;-3.890;2023-08-08T12:04:46;18.90;99.90
25436;DHT22;13363;52.772;-3.890;2023-08-08T12:07:12;18.90;99.90
25436;DHT22;13363;52.772;-3.890;2023-08-08T12:09:39;18.80;99.90
25436;DHT22;13363;52.772;-3.890;2023-08-08T12:14:39;19.00;99.90
25436;DHT22;13363;52.772;-3.890;2023-08-08T12:17:07;19.20;99.90
25436;DHT22;13363;52.772;-3.890;2023-08-08T12:19:34;19.30;99.90
25436;DHT22;13363;52.772;-3.890;2023-08-08T12:22:00;19.40;99.90
25436;DHT22;13363;52.772;-3.890;2023-08-08T12:24:26;19.30;99.90
25436;DHT22;13363;52.772;-3.890;2023-08-08T12:26:52;19.60;99.90
25436;DHT22;13363;52.772;-3.890;2023-08-08T12:29:17;19.80;99.90
25436;DHT22;13363;52.772;-3.890;2023-08-08T12:31:43;19.70;99.90
25436;DHT22;13363;52.772;-3.890;2023-08-08T12:34:09;19.60;99.90
25436;DHT22;13363;52.772;-3.890;2023-08-08T12:36:35;19.60;99.90
25436;DHT22;13363;52.772;-3.890;2023-08-08T12:39:01;19.50;99.90
25436;DHT22;13363;52.772;-3.890;2023-08-08T12:41:27;19.40;99.90
25436;DHT22;13363;52.772;-3.890;2023-08-08T12:43:55;19.40;99.90
25436;DHT22;13363;52.772;-3.890;2023-08-08T12:46:21;19.30;99.90
25436;DHT22;13363;52.772;-3.890;2023-08-08T12:48:47;19.30;99.90
25436;DHT22;13363;52.772;-3.890;2023-08-08T12:51:13;19.20;99.90
25436;DHT22;13363;52.772;-3.890;2023-08-08T12:53:39;19.10;99.90
25436;DHT22;13363;52.772;-3.890;2023-08-08T12:56:05;19.00;99.90
25436;DHT22;13363;52.772;-3.890;2023-08-08T12:58:31;18.90;99.90
25436;DHT22;13363;52.772;-3.890;2023-08-08T13:00:56;18.90;99.90
25436;DHT22;13363;52.772;-3.890;2023-08-08T13:03:22;18.90;99.90
25436;DHT22;13363;52.772;-3.890;2023-08-08T13:05:48;18.90;99.90
25436;DHT22;13363;52.772;-3.890;2023-08-08T13:08:14;18.90;99.90
25436;DHT22;13363;52.772;-3.890;2023-08-08T13:10:40;18.90;99.90
25436;DHT22;13363;52.772;-3.890;2023-08-08T13:13:06;18.90;99.90
25436;DHT22;13363;52.772;-3.890;2023-08-08T13:15:32;18.90;99.90
25436;DHT22;13363;52.772;-3.890;2023-08-08T13:17:58;18.90;99.90
25436;DHT22;13363;52.772;-3.890;2023-08-08T13:20:27;19.00;99.90
25436;DHT22;13363;52.772;-3.890;2023-08-08T13:22:53;19.00;99.90
25436;DHT22;13363;52.772;-3.890;2023-08-08T13:27:46;19.20;99.90
25436;DHT22;13363;52.772;-3.890;2023-08-08T13:30:13;19.30;99.90
25436;DHT22;13363;52.772;-3.890;2023-08-08T13:32:41;19.30;99.90
25436;DHT22;13363;52.772;-3.890;2023-08-08T13:35:07;19.30;99.90
25436;DHT22;13363;52.772;-3.890;2023-08-08T13:37:33;19.20;99.90
25436;DHT22;13363;52.772;-3.890;2023-08-08T13:39:59;19.30;99.90
25436;DHT22;13363;52.772;-3.890;2023-08-08T13:42:28;19.40;99.90
25436;DHT22;13363;52.772;-3.890;2023-08-08T13:44:56;19.20;99.90
25436;DHT22;13363;52.772;-3.890;2023-08-08T13:47:22;19.30;99.90
25436;DHT22;13363;52.772;-3.890;2023-08-08T13:49:48;19.30;99.90
25436;DHT22;13363;52.772;-3.890;2023-08-08T13:52:26;19.30;99.90
25436;DHT22;13363;52.772;-3.890;2023-08-08T13:54:52;19.30;99.90
25436;DHT22;13363;52.772;-3.890;2023-08-08T13:57:18;19.40;99.90
25436;DHT22;13363;52.772;-3.890;2023-08-08T13:59:43;19.50;99.90
25436;DHT22;13363;52.772;-3.890;2023-08-08T14:02:09;19.60;99.90
25436;DHT22;13363;52.772;-3.890;2023-08-08T14:04:35;19.80;99.90
25436;DHT22;13363;52.772;-3.890;2023-08-08T14:07:03;19.70;99.90
25436;DHT22;13363;52.772;-3.890;2023-08-08T14:09:35;19.70;99.90
25436;DHT22;13363;52.772;-3.890;2023-08-08T14:12:02;19.90;99.90
25436;DHT22;13363;52.772;-3.890;2023-08-08T14:14:28;19.90;99.90
25436;DHT22;13363;52.772;-3.890;2023-08-08T14:16:54;20.00;99.90
25436;DHT22;13363;52.772;-3.890;2023-08-08T14:19:23;20.30;99.90
25436;DHT22;13363;52.772;-3.890;2023-08-08T14:21:53;20.40;99.90
25436;DHT22;13363;52.772;-3.890;2023-08-08T14:24:20;20.20;99.90
25436;DHT22;13363;52.772;-3.890;2023-08-08T14:26:46;20.20;99.90
25436;DHT22;13363;52.772;-3.890;2023-08-08T14:29:12;20.10;99.90
25436;DHT22;13363;52.772;-3.890;2023-08-08T14:31:38;20.10;99.90
25436;DHT22;13363;52.772;-3.890;2023-08-08T14:34:03;20.40;99.90
25436;DHT22;13363;52.772;-3.890;2023-08-08T14:36:29;20.50;99.90
25436;DHT22;13363;52.772;-3.890;2023-08-08T14:38:55;20.80;99.90
25436;DHT22;13363;52.772;-3.890;2023-08-08T14:41:21;21.20;99.90
25436;DHT22;13363;52.772;-3.890;2023-08-08T14:43:47;21.40;99.90
25436;DHT22;13363;52.772;-3.890;2023-08-08T14:46:13;21.60;99.90
25436;DHT22;13363;52.772;-3.890;2023-08-08T14:48:39;21.60;99.90
25436;DHT22;13363;52.772;-3.890;2023-08-08T14:51:04;21.60;99.90
25436;DHT22;13363;52.772;-3.890;2023-08-08T14:53:30;21.10;99.90
25436;DHT22;13363;52.772;-3.890;2023-08-08T14:55:56;20.80;99.90
25436;DHT22;13363;52.772;-3.890;2023-08-08T14:58:23;20.50;99.90
25436;DHT22;13363;52.772;-3.890;2023-08-08T15:00:49;20.30;99.90
25436;DHT22;13363;52.772;-3.890;2023-08-08T15:03:16;20.10;99.90
25436;DHT22;13363;52.772;-3.890;2023-08-08T15:05:44;20.10;99.90
25436;DHT22;13363;52.772;-3.890;2023-08-08T15:08:11;20.30;99.90
25436;DHT22;13363;52.772;-3.890;2023-08-08T15:10:37;20.40;99.90
25436;DHT22;13363;52.772;-3.890;2023-08-08T15:13:03;20.50;99.90
25436;DHT22;13363;52.772;-3.890;2023-08-08T15:15:29;20.60;99.90
25436;DHT22;13363;52.772;-3.890;2023-08-08T15:17:57;20.00;99.90
25436;DHT22;13363;52.772;-3.890;2023-08-08T15:20:24;21.30;99.90
25436;DHT22;13363;52.772;-3.890;2023-08-08T15:22:49;19.70;99.90
25436;DHT22;13363;52.772;-3.890;2023-08-08T15:25:15;19.70;99.90
25436;DHT22;13363;52.772;-3.890;2023-08-08T15:27:41;19.60;99.90
25436;DHT22;13363;52.772;-3.890;2023-08-08T15:30:07;19.60;99.90
25436;DHT22;13363;52.772;-3.890;2023-08-08T15:32:33;19.50;99.90
25436;DHT22;13363;52.772;-3.890;2023-08-08T15:34:59;19.40;99.90
25436;DHT22;13363;52.772;-3.890;2023-08-08T15:37:25;19.40;99.90
25436;DHT22;13363;52.772;-3.890;2023-08-08T15:39:52;19.40;99.90
25436;DHT22;13363;52.772;-3.890;2023-08-08T15:42:18;19.40;99.90
25436;DHT22;13363;52.772;-3.890;2023-08-08T15:44:48;19.20;99.90
25436;DHT22;13363;52.772;-3.890;2023-08-08T15:47:18;19.00;99.90
25436;DHT22;13363;52.772;-3.890;2023-08-08T15:49:45;18.90;99.90